sensor_id;sensor_type;location;lat;lon;timestamp;P1;durP1;ratioP1;P2;durP2;ratioP2
17201;SDS011;8717;53.588;10.176;2022-12-07T00:01:20;32.80;;;12.10;;
17201;SDS011;8717;53.588;10.176;2022-12-07T00:03:48;17.47;;;11.17;;
17201;SDS011;8717;53.588;10.176;2022-12-07T00:06:18;18.90;;;13.27;;
17201;SDS011;8717;53.588;10.176;2022-12-07T00:08:46;18.43;;;13.27;;
17201;SDS011;8717;53.588;10.176;2022-12-07T00:11:14;17.90;;;13.00;;
17201;SDS011;8717;53.588;10.176;2022-12-07T00:13:43;18.37;;;13.33;;
17201;SDS011;8717;53.588;10.176;2022-12-07T00:16:10;18.80;;;13.90;;
17201;SDS011;8717;53.588;10.176;2022-12-07T00:18:38;73.53;;;15.83;;
17201;SDS011;8717;53.588;10.176;2022-12-07T00:21:06;27.70;;;14.23;;
17201;SDS011;8717;53.588;10.176;2022-12-07T00:23:36;20.77;;;14.07;;
17201;SDS011;8717;53.588;10.176;2022-12-07T00:26:04;22.73;;;13.73;;
17201;SDS011;8717;53.588;10.176;2022-12-07T00:28:32;20.53;;;14.10;;
17201;SDS011;8717;53.588;10.176;2022-12-07T00:31:00;18.37;;;13.40;;
17201;SDS011;8717;53.588;10.176;2022-12-07T00:33:28;17.37;;;13.00;;
17201;SDS011;8717;53.588;10.176;2022-12-07T00:35:55;21.47;;;13.80;;
17201;SDS011;8717;53.588;10.176;2022-12-07T00:38:22;19.10;;;13.30;;
17201;SDS011;8717;53.588;10.176;2022-12-07T00:40:54;21.03;;;13.90;;
17201;SDS011;8717;53.588;10.176;2022-12-07T00:43:22;22.00;;;14.33;;
17201;SDS011;8717;53.588;10.176;2022-12-07T00:45:48;18.97;;;13.23;;
17201;SDS011;8717;53.588;10.176;2022-12-07T00:48:18;19.47;;;13.47;;
17201;SDS011;8717;53.588;10.176;2022-12-07T00:50:45;18.70;;;13.20;;
17201;SDS011;8717;53.588;10.176;2022-12-07T00:53:12;20.30;;;14.07;;
17201;SDS011;8717;53.588;10.176;2022-12-07T00:55:40;21.03;;;13.27;;
17201;SDS011;8717;53.588;10.176;2022-12-07T00:58:09;17.90;;;12.90;;
17201;SDS011;8717;53.588;10.176;2022-12-07T01:00:37;16.70;;;12.73;;
17201;SDS011;8717;53.588;10.176;2022-12-07T01:03:06;17.43;;;12.50;;
17201;SDS011;8717;53.588;10.176;2022-12-07T01:05:35;16.40;;;10.80;;
17201;SDS011;8717;53.588;10.176;2022-12-07T01:08:02;15.80;;;11.73;;
17201;SDS011;8717;53.588;10.176;2022-12-07T01:10:29;15.87;;;11.77;;
17201;SDS011;8717;53.588;10.176;2022-12-07T01:12:56;16.67;;;11.83;;
17201;SDS011;8717;53.588;10.176;2022-12-07T01:15:25;15.17;;;11.30;;
17201;SDS011;8717;53.588;10.176;2022-12-07T01:17:52;17.10;;;10.80;;
17201;SDS011;8717;53.588;10.176;2022-12-07T01:20:20;19.40;;;11.67;;
17201;SDS011;8717;53.588;10.176;2022-12-07T01:22:46;15.63;;;11.17;;
17201;SDS011;8717;53.588;10.176;2022-12-07T01:25:13;16.67;;;11.43;;
17201;SDS011;8717;53.588;10.176;2022-12-07T01:27:40;16.23;;;10.90;;
17201;SDS011;8717;53.588;10.176;2022-12-07T01:30:07;14.50;;;10.50;;
17201;SDS011;8717;53.588;10.176;2022-12-07T01:32:37;14.30;;;10.57;;
17201;SDS011;8717;53.588;10.176;2022-12-07T01:35:04;16.53;;;10.03;;
17201;SDS011;8717;53.588;10.176;2022-12-07T01:37:33;15.30;;;10.40;;
17201;SDS011;8717;53.588;10.176;2022-12-07T01:40:02;15.50;;;10.17;;
17201;SDS011;8717;53.588;10.176;2022-12-07T01:42:29;13.87;;;9.53;;
17201;SDS011;8717;53.588;10.176;2022-12-07T01:48:11;14.47;;;9.60;;
17201;SDS011;8717;53.588;10.176;2022-12-07T01:50:41;11.63;;;8.73;;
17201;SDS011;8717;53.588;10.176;2022-12-07T01:53:10;11.70;;;9.07;;
17201;SDS011;8717;53.588;10.176;2022-12-07T01:55:40;14.33;;;9.57;;
17201;SDS011;8717;53.588;10.176;2022-12-07T01:58:10;13.50;;;9.07;;
17201;SDS011;8717;53.588;10.176;2022-12-07T02:00:38;13.73;;;9.50;;
17201;SDS011;8717;53.588;10.176;2022-12-07T02:03:09;14.70;;;9.70;;
17201;SDS011;8717;53.588;10.176;2022-12-07T02:05:41;14.03;;;9.90;;
17201;SDS011;8717;53.588;10.176;2022-12-07T02:08:09;16.80;;;9.50;;
17201;SDS011;8717;53.588;10.176;2022-12-07T02:10:38;15.00;;;8.93;;
17201;SDS011;8717;53.588;10.176;2022-12-07T02:13:06;12.50;;;9.27;;
17201;SDS011;8717;53.588;10.176;2022-12-07T02:15:39;14.70;;;9.30;;
17201;SDS011;8717;53.588;10.176;2022-12-07T02:18:20;13.93;;;9.53;;
17201;SDS011;8717;53.588;10.176;2022-12-07T02:20:54;15.50;;;10.27;;
17201;SDS011;8717;53.588;10.176;2022-12-07T02:23:38;13.57;;;9.10;;
17201;SDS011;8717;53.588;10.176;2022-12-07T02:26:23;12.70;;;8.60;;
17201;SDS011;8717;53.588;10.176;2022-12-07T02:29:11;10.90;;;8.43;;
17201;SDS011;8717;53.588;10.176;2022-12-07T02:31:43;12.27;;;7.80;;
17201;SDS011;8717;53.588;10.176;2022-12-07T02:34:18;12.40;;;8.13;;
17201;SDS011;8717;53.588;10.176;2022-12-07T02:36:51;13.90;;;8.63;;
17201;SDS011;8717;53.588;10.176;2022-12-07T02:39:24;11.00;;;7.33;;
17201;SDS011;8717;53.588;10.176;2022-12-07T02:41:58;10.50;;;6.87;;
17201;SDS011;8717;53.588;10.176;2022-12-07T02:44:30;10.53;;;6.80;;
17201;SDS011;8717;53.588;10.176;2022-12-07T02:47:00;11.60;;;6.07;;
17201;SDS011;8717;53.588;10.176;2022-12-07T02:49:30;11.20;;;6.13;;
17201;SDS011;8717;53.588;10.176;2022-12-07T02:51:57;9.90;;;5.67;;
17201;SDS011;8717;53.588;10.176;2022-12-07T02:54:24;13.33;;;7.00;;
17201;SDS011;8717;53.588;10.176;2022-12-07T02:56:52;8.53;;;5.60;;
17201;SDS011;8717;53.588;10.176;2022-12-07T02:59:25;6.90;;;4.83;;
17201;SDS011;8717;53.588;10.176;2022-12-07T03:02:03;7.17;;;4.50;;
17201;SDS011;8717;53.588;10.176;2022-12-07T03:04:43;9.10;;;4.47;;
17201;SDS011;8717;53.588;10.176;2022-12-07T03:07:18;8.87;;;5.07;;
17201;SDS011;8717;53.588;10.176;2022-12-07T03:09:55;7.13;;;4.07;;
17201;SDS011;8717;53.588;10.176;2022-12-07T03:12:28;7.63;;;4.13;;
17201;SDS011;8717;53.588;10.176;2022-12-07T03:15:00;6.60;;;3.87;;
17201;SDS011;8717;53.588;10.176;2022-12-07T03:17:31;6.57;;;3.20;;
17201;SDS011;8717;53.588;10.176;2022-12-07T03:20:04;5.83;;;3.50;;
17201;SDS011;8717;53.588;10.176;2022-12-07T03:22:34;6.93;;;3.60;;
17201;SDS011;8717;53.588;10.176;2022-12-07T03:25:04;5.60;;;3.63;;
17201;SDS011;8717;53.588;10.176;2022-12-07T03:27:38;5.97;;;3.60;;
17201;SDS011;8717;53.588;10.176;2022-12-07T03:30:11;5.40;;;3.57;;
17201;SDS011;8717;53.588;10.176;2022-12-07T03:32:41;8.90;;;3.60;;
17201;SDS011;8717;53.588;10.176;2022-12-07T03:35:12;11.00;;;3.70;;
17201;SDS011;8717;53.588;10.176;2022-12-07T03:37:43;7.37;;;3.00;;
17201;SDS011;8717;53.588;10.176;2022-12-07T03:40:15;5.73;;;2.53;;
17201;SDS011;8717;53.588;10.176;2022-12-07T03:42:46;5.00;;;2.50;;
17201;SDS011;8717;53.588;10.176;2022-12-07T03:45:15;5.37;;;2.70;;
17201;SDS011;8717;53.588;10.176;2022-12-07T03:47:45;5.33;;;3.00;;
17201;SDS011;8717;53.588;10.176;2022-12-07T03:50:18;3.67;;;2.17;;
17201;SDS011;8717;53.588;10.176;2022-12-07T03:52:53;6.13;;;2.57;;
17201;SDS011;8717;53.588;10.176;2022-12-07T03:55:22;10.57;;;2.80;;
17201;SDS011;8717;53.588;10.176;2022-12-07T03:57:55;6.10;;;2.10;;
17201;SDS011;8717;53.588;10.176;2022-12-07T04:00:26;4.40;;;2.20;;
17201;SDS011;8717;53.588;10.176;2022-12-07T04:02:54;5.73;;;2.00;;
17201;SDS011;8717;53.588;10.176;2022-12-07T04:05:22;7.90;;;2.10;;
17201;SDS011;8717;53.588;10.176;2022-12-07T04:07:49;3.27;;;1.93;;
17201;SDS011;8717;53.588;10.176;2022-12-07T04:10:16;3.03;;;1.80;;
17201;SDS011;8717;53.588;10.176;2022-12-07T04:12:44;4.33;;;1.90;;
17201;SDS011;8717;53.588;10.176;2022-12-07T04:15:11;3.53;;;2.00;;
17201;SDS011;8717;53.588;10.176;2022-12-07T04:17:39;2.93;;;1.87;;
17201;SDS011;8717;53.588;10.176;2022-12-07T04:20:06;3.23;;;2.00;;
17201;SDS011;8717;53.588;10.176;2022-12-07T04:22:34;5.33;;;2.20;;
17201;SDS011;8717;53.588;10.176;2022-12-07T04:25:00;3.23;;;1.83;;
17201;SDS011;8717;53.588;10.176;2022-12-07T04:27:27;9.93;;;2.13;;
17201;SDS011;8717;53.588;10.176;2022-12-07T04:29:54;3.83;;;2.20;;
17201;SDS011;8717;53.588;10.176;2022-12-07T04:32:21;4.33;;;2.00;;
17201;SDS011;8717;53.588;10.176;2022-12-07T04:34:49;5.00;;;1.80;;
17201;SDS011;8717;53.588;10.176;2022-12-07T04:37:16;6.63;;;1.97;;
17201;SDS011;8717;53.588;10.176;2022-12-07T04:39:43;5.53;;;1.83;;
17201;SDS011;8717;53.588;10.176;2022-12-07T04:42:10;3.90;;;1.97;;
17201;SDS011;8717;53.588;10.176;2022-12-07T04:44:38;8.80;;;2.10;;
17201;SDS011;8717;53.588;10.176;2022-12-07T04:47:05;4.03;;;2.13;;
17201;SDS011;8717;53.588;10.176;2022-12-07T04:49:32;5.00;;;2.00;;
17201;SDS011;8717;53.588;10.176;2022-12-07T04:52:00;6.63;;;2.03;;
17201;SDS011;8717;53.588;10.176;2022-12-07T04:54:27;6.97;;;2.37;;
17201;SDS011;8717;53.588;10.176;2022-12-07T04:56:54;8.50;;;2.50;;
17201;SDS011;8717;53.588;10.176;2022-12-07T04:59:21;7.00;;;2.30;;
17201;SDS011;8717;53.588;10.176;2022-12-07T05:01:47;7.73;;;2.23;;
17201;SDS011;8717;53.588;10.176;2022-12-07T05:04:14;2.97;;;2.13;;
17201;SDS011;8717;53.588;10.176;2022-12-07T05:06:42;4.70;;;2.50;;
17201;SDS011;8717;53.588;10.176;2022-12-07T05:09:11;6.20;;;2.40;;
17201;SDS011;8717;53.588;10.176;2022-12-07T05:11:37;12.67;;;2.63;;
17201;SDS011;8717;53.588;10.176;2022-12-07T05:14:05;3.60;;;2.20;;
17201;SDS011;8717;53.588;10.176;2022-12-07T05:16:33;4.80;;;2.27;;
17201;SDS011;8717;53.588;10.176;2022-12-07T05:19:00;8.60;;;2.83;;
17201;SDS011;8717;53.588;10.176;2022-12-07T05:21:26;4.77;;;2.60;;
17201;SDS011;8717;53.588;10.176;2022-12-07T05:23:54;12.17;;;2.93;;
17201;SDS011;8717;53.588;10.176;2022-12-07T05:26:22;5.90;;;2.73;;
17201;SDS011;8717;53.588;10.176;2022-12-07T05:28:50;34.50;;;4.17;;
17201;SDS011;8717;53.588;10.176;2022-12-07T05:31:17;5.47;;;2.90;;
17201;SDS011;8717;53.588;10.176;2022-12-07T05:33:45;189.67;;;13.40;;
17201;SDS011;8717;53.588;10.176;2022-12-07T05:36:12;72.90;;;6.70;;
17201;SDS011;8717;53.588;10.176;2022-12-07T05:38:39;28.70;;;4.73;;
17201;SDS011;8717;53.588;10.176;2022-12-07T05:41:06;29.93;;;5.43;;
17201;SDS011;8717;53.588;10.176;2022-12-07T05:43:57;9.17;;;6.00;;
17201;SDS011;8717;53.588;10.176;2022-12-07T05:46:23;8.70;;;5.13;;
17201;SDS011;8717;53.588;10.176;2022-12-07T05:48:51;19.73;;;4.23;;
17201;SDS011;8717;53.588;10.176;2022-12-07T05:51:18;76.73;;;6.83;;
17201;SDS011;8717;53.588;10.176;2022-12-07T05:53:45;7.80;;;3.57;;
17201;SDS011;8717;53.588;10.176;2022-12-07T05:56:12;419.37;;;29.17;;
17201;SDS011;8717;53.588;10.176;2022-12-07T05:58:39;6.33;;;4.30;;
17201;SDS011;8717;53.588;10.176;2022-12-07T06:01:24;20.70;;;4.80;;
17201;SDS011;8717;53.588;10.176;2022-12-07T06:03:51;6.67;;;3.93;;
17201;SDS011;8717;53.588;10.176;2022-12-07T06:06:18;7.17;;;3.40;;
17201;SDS011;8717;53.588;10.176;2022-12-07T06:08:45;5.53;;;3.30;;
17201;SDS011;8717;53.588;10.176;2022-12-07T06:11:11;10.20;;;3.47;;
17201;SDS011;8717;53.588;10.176;2022-12-07T06:13:56;24.43;;;4.57;;
17201;SDS011;8717;53.588;10.176;2022-12-07T06:16:22;40.07;;;5.73;;
17201;SDS011;8717;53.588;10.176;2022-12-07T06:18:50;9.57;;;3.63;;
17201;SDS011;8717;53.588;10.176;2022-12-07T06:21:17;27.27;;;4.73;;
17201;SDS011;8717;53.588;10.176;2022-12-07T06:23:47;8.90;;;3.83;;
17201;SDS011;8717;53.588;10.176;2022-12-07T06:26:13;10.27;;;4.20;;
17201;SDS011;8717;53.588;10.176;2022-12-07T06:28:40;5.87;;;3.60;;
17201;SDS011;8717;53.588;10.176;2022-12-07T06:31:07;6.27;;;3.93;;
17201;SDS011;8717;53.588;10.176;2022-12-07T06:33:36;5.93;;;4.00;;
17201;SDS011;8717;53.588;10.176;2022-12-07T06:36:03;10.00;;;4.43;;
17201;SDS011;8717;53.588;10.176;2022-12-07T06:38:30;6.50;;;4.00;;
17201;SDS011;8717;53.588;10.176;2022-12-07T06:40:57;5.00;;;4.00;;
17201;SDS011;8717;53.588;10.176;2022-12-07T06:43:24;6.03;;;4.13;;
17201;SDS011;8717;53.588;10.176;2022-12-07T06:45:52;9.23;;;4.07;;
17201;SDS011;8717;53.588;10.176;2022-12-07T06:48:19;5.97;;;4.00;;
17201;SDS011;8717;53.588;10.176;2022-12-07T06:50:47;7.80;;;3.90;;
17201;SDS011;8717;53.588;10.176;2022-12-07T06:53:14;7.43;;;3.67;;
17201;SDS011;8717;53.588;10.176;2022-12-07T06:55:41;7.30;;;3.80;;
17201;SDS011;8717;53.588;10.176;2022-12-07T06:58:07;9.27;;;3.90;;
17201;SDS011;8717;53.588;10.176;2022-12-07T07:00:34;5.23;;;3.57;;
17201;SDS011;8717;53.588;10.176;2022-12-07T07:03:01;6.90;;;4.20;;
17201;SDS011;8717;53.588;10.176;2022-12-07T07:05:27;5.47;;;3.60;;
17201;SDS011;8717;53.588;10.176;2022-12-07T07:07:55;7.30;;;3.60;;
17201;SDS011;8717;53.588;10.176;2022-12-07T07:10:22;6.13;;;3.00;;
17201;SDS011;8717;53.588;10.176;2022-12-07T07:12:49;5.47;;;4.07;;
17201;SDS011;8717;53.588;10.176;2022-12-07T07:15:16;6.07;;;3.13;;
17201;SDS011;8717;53.588;10.176;2022-12-07T07:17:42;9.50;;;3.37;;
17201;SDS011;8717;53.588;10.176;2022-12-07T07:20:10;6.30;;;3.63;;
17201;SDS011;8717;53.588;10.176;2022-12-07T07:22:37;7.70;;;3.80;;
17201;SDS011;8717;53.588;10.176;2022-12-07T07:25:05;5.57;;;2.93;;
17201;SDS011;8717;53.588;10.176;2022-12-07T07:27:32;7.93;;;2.80;;
17201;SDS011;8717;53.588;10.176;2022-12-07T07:29:59;6.00;;;3.27;;
17201;SDS011;8717;53.588;10.176;2022-12-07T07:32:26;8.83;;;3.23;;
17201;SDS011;8717;53.588;10.176;2022-12-07T07:34:53;7.33;;;3.40;;
17201;SDS011;8717;53.588;10.176;2022-12-07T07:37:19;7.50;;;2.50;;
17201;SDS011;8717;53.588;10.176;2022-12-07T07:39:46;5.17;;;2.77;;
17201;SDS011;8717;53.588;10.176;2022-12-07T07:42:14;8.73;;;2.70;;
17201;SDS011;8717;53.588;10.176;2022-12-07T07:44:42;8.23;;;2.97;;
17201;SDS011;8717;53.588;10.176;2022-12-07T07:47:09;6.63;;;2.80;;
17201;SDS011;8717;53.588;10.176;2022-12-07T07:49:36;8.93;;;2.73;;
17201;SDS011;8717;53.588;10.176;2022-12-07T07:52:02;9.10;;;2.80;;
17201;SDS011;8717;53.588;10.176;2022-12-07T07:54:30;8.17;;;2.40;;
17201;SDS011;8717;53.588;10.176;2022-12-07T07:56:57;5.47;;;2.60;;
17201;SDS011;8717;53.588;10.176;2022-12-07T07:59:25;9.23;;;2.70;;
17201;SDS011;8717;53.588;10.176;2022-12-07T08:01:52;2.70;;;2.00;;
17201;SDS011;8717;53.588;10.176;2022-12-07T08:04:18;4.70;;;2.00;;
17201;SDS011;8717;53.588;10.176;2022-12-07T08:06:45;4.50;;;2.00;;
17201;SDS011;8717;53.588;10.176;2022-12-07T08:09:12;4.47;;;1.73;;
17201;SDS011;8717;53.588;10.176;2022-12-07T08:11:38;5.13;;;1.87;;
17201;SDS011;8717;53.588;10.176;2022-12-07T08:14:05;4.40;;;1.77;;
17201;SDS011;8717;53.588;10.176;2022-12-07T08:16:33;3.93;;;1.60;;
17201;SDS011;8717;53.588;10.176;2022-12-07T08:19:00;6.97;;;2.00;;
17201;SDS011;8717;53.588;10.176;2022-12-07T08:21:26;4.43;;;1.83;;
17201;SDS011;8717;53.588;10.176;2022-12-07T08:23:53;5.17;;;1.80;;
17201;SDS011;8717;53.588;10.176;2022-12-07T08:26:20;5.33;;;2.00;;
17201;SDS011;8717;53.588;10.176;2022-12-07T08:28:46;5.13;;;1.77;;
17201;SDS011;8717;53.588;10.176;2022-12-07T08:31:15;4.83;;;1.80;;
17201;SDS011;8717;53.588;10.176;2022-12-07T08:33:45;7.93;;;2.07;;
17201;SDS011;8717;53.588;10.176;2022-12-07T08:36:12;4.13;;;1.90;;
17201;SDS011;8717;53.588;10.176;2022-12-07T08:38:40;9.30;;;2.07;;
17201;SDS011;8717;53.588;10.176;2022-12-07T08:41:07;3.97;;;1.77;;
17201;SDS011;8717;53.588;10.176;2022-12-07T08:43:35;5.50;;;1.90;;
17201;SDS011;8717;53.588;10.176;2022-12-07T08:46:04;6.73;;;2.10;;
17201;SDS011;8717;53.588;10.176;2022-12-07T08:48:35;4.20;;;1.87;;
17201;SDS011;8717;53.588;10.176;2022-12-07T08:51:06;4.47;;;2.10;;
17201;SDS011;8717;53.588;10.176;2022-12-07T08:53:33;5.63;;;2.13;;
17201;SDS011;8717;53.588;10.176;2022-12-07T08:56:01;4.63;;;1.93;;
17201;SDS011;8717;53.588;10.176;2022-12-07T08:58:28;5.43;;;2.10;;
17201;SDS011;8717;53.588;10.176;2022-12-07T09:00:55;5.63;;;2.30;;
17201;SDS011;8717;53.588;10.176;2022-12-07T09:03:21;8.03;;;2.10;;
17201;SDS011;8717;53.588;10.176;2022-12-07T09:05:48;5.47;;;2.33;;
17201;SDS011;8717;53.588;10.176;2022-12-07T09:08:16;5.77;;;1.83;;
17201;SDS011;8717;53.588;10.176;2022-12-07T09:10:43;5.40;;;2.20;;
17201;SDS011;8717;53.588;10.176;2022-12-07T09:13:10;5.63;;;2.60;;
17201;SDS011;8717;53.588;10.176;2022-12-07T09:15:37;6.07;;;2.10;;
17201;SDS011;8717;53.588;10.176;2022-12-07T09:18:04;8.87;;;2.00;;
17201;SDS011;8717;53.588;10.176;2022-12-07T09:20:31;5.97;;;1.70;;
17201;SDS011;8717;53.588;10.176;2022-12-07T09:22:58;11.17;;;2.03;;
17201;SDS011;8717;53.588;10.176;2022-12-07T09:25:26;7.80;;;1.97;;
17201;SDS011;8717;53.588;10.176;2022-12-07T09:27:56;4.37;;;1.60;;
17201;SDS011;8717;53.588;10.176;2022-12-07T09:30:23;6.13;;;1.73;;
17201;SDS011;8717;53.588;10.176;2022-12-07T09:32:50;7.03;;;2.30;;
17201;SDS011;8717;53.588;10.176;2022-12-07T09:35:18;5.40;;;1.77;;
17201;SDS011;8717;53.588;10.176;2022-12-07T09:37:45;9.07;;;2.30;;
17201;SDS011;8717;53.588;10.176;2022-12-07T09:40:12;8.37;;;2.00;;
17201;SDS011;8717;53.588;10.176;2022-12-07T09:42:43;6.53;;;1.80;;
17201;SDS011;8717;53.588;10.176;2022-12-07T09:45:11;5.77;;;2.00;;
17201;SDS011;8717;53.588;10.176;2022-12-07T09:47:40;6.17;;;2.17;;
17201;SDS011;8717;53.588;10.176;2022-12-07T09:50:11;11.13;;;1.90;;
17201;SDS011;8717;53.588;10.176;2022-12-07T09:52:40;4.37;;;1.87;;
17201;SDS011;8717;53.588;10.176;2022-12-07T09:55:09;6.00;;;2.00;;
17201;SDS011;8717;53.588;10.176;2022-12-07T09:57:40;8.70;;;2.20;;
17201;SDS011;8717;53.588;10.176;2022-12-07T10:00:12;7.27;;;2.10;;
17201;SDS011;8717;53.588;10.176;2022-12-07T10:02:40;5.50;;;1.60;;
17201;SDS011;8717;53.588;10.176;2022-12-07T10:05:11;8.70;;;2.07;;
17201;SDS011;8717;53.588;10.176;2022-12-07T10:07:40;4.07;;;1.70;;
17201;SDS011;8717;53.588;10.176;2022-12-07T10:10:12;6.40;;;2.57;;
17201;SDS011;8717;53.588;10.176;2022-12-07T10:12:58;7.40;;;2.33;;
17201;SDS011;8717;53.588;10.176;2022-12-07T10:18:27;3.83;;;1.40;;
17201;SDS011;8717;53.588;10.176;2022-12-07T10:21:03;5.77;;;1.53;;
17201;SDS011;8717;53.588;10.176;2022-12-07T10:23:41;7.07;;;2.00;;
17201;SDS011;8717;53.588;10.176;2022-12-07T10:26:28;5.47;;;1.50;;
17201;SDS011;8717;53.588;10.176;2022-12-07T10:28:59;5.50;;;1.40;;
17201;SDS011;8717;53.588;10.176;2022-12-07T10:31:28;3.60;;;1.60;;
17201;SDS011;8717;53.588;10.176;2022-12-07T10:33:55;4.90;;;1.57;;
17201;SDS011;8717;53.588;10.176;2022-12-07T10:36:24;6.53;;;1.43;;
17201;SDS011;8717;53.588;10.176;2022-12-07T10:38:53;8.07;;;1.60;;
17201;SDS011;8717;53.588;10.176;2022-12-07T10:41:26;8.83;;;1.73;;
17201;SDS011;8717;53.588;10.176;2022-12-07T10:43:53;6.43;;;1.83;;
17201;SDS011;8717;53.588;10.176;2022-12-07T10:52:42;5.13;;;1.87;;
17201;SDS011;8717;53.588;10.176;2022-12-07T10:55:20;9.57;;;2.30;;
17201;SDS011;8717;53.588;10.176;2022-12-07T11:00:49;5.13;;;1.40;;
17201;SDS011;8717;53.588;10.176;2022-12-07T11:03:29;5.80;;;1.70;;
17201;SDS011;8717;53.588;10.176;2022-12-07T11:06:12;6.63;;;2.70;;
17201;SDS011;8717;53.588;10.176;2022-12-07T11:08:51;6.23;;;2.37;;
17201;SDS011;8717;53.588;10.176;2022-12-07T11:11:30;5.83;;;1.80;;
17201;SDS011;8717;53.588;10.176;2022-12-07T11:14:03;7.27;;;2.10;;
17201;SDS011;8717;53.588;10.176;2022-12-07T11:16:44;6.67;;;1.20;;
17201;SDS011;8717;53.588;10.176;2022-12-07T11:19:30;4.43;;;1.47;;
17201;SDS011;8717;53.588;10.176;2022-12-07T11:22:09;3.17;;;1.57;;
17201;SDS011;8717;53.588;10.176;2022-12-07T11:24:44;4.97;;;1.57;;
17201;SDS011;8717;53.588;10.176;2022-12-07T11:27:23;4.57;;;1.50;;
17201;SDS011;8717;53.588;10.176;2022-12-07T11:30:11;5.73;;;1.57;;
17201;SDS011;8717;53.588;10.176;2022-12-07T11:32:44;8.87;;;1.83;;
17201;SDS011;8717;53.588;10.176;2022-12-07T11:35:27;4.63;;;1.50;;
17201;SDS011;8717;53.588;10.176;2022-12-07T11:38:01;6.77;;;1.67;;
17201;SDS011;8717;53.588;10.176;2022-12-07T11:40:34;6.60;;;1.50;;
17201;SDS011;8717;53.588;10.176;2022-12-07T11:43:04;4.30;;;1.30;;
17201;SDS011;8717;53.588;10.176;2022-12-07T11:45:37;4.50;;;1.17;;
17201;SDS011;8717;53.588;10.176;2022-12-07T11:48:09;5.80;;;1.60;;
17201;SDS011;8717;53.588;10.176;2022-12-07T11:50:44;5.43;;;1.43;;
17201;SDS011;8717;53.588;10.176;2022-12-07T11:53:17;6.43;;;1.70;;
17201;SDS011;8717;53.588;10.176;2022-12-07T11:55:48;4.77;;;1.20;;
17201;SDS011;8717;53.588;10.176;2022-12-07T11:58:20;4.63;;;1.27;;
17201;SDS011;8717;53.588;10.176;2022-12-07T12:01:04;4.70;;;1.53;;
17201;SDS011;8717;53.588;10.176;2022-12-07T12:03:40;5.93;;;1.47;;
17201;SDS011;8717;53.588;10.176;2022-12-07T12:06:11;5.97;;;1.43;;
17201;SDS011;8717;53.588;10.176;2022-12-07T12:08:38;4.07;;;1.27;;
17201;SDS011;8717;53.588;10.176;2022-12-07T12:11:13;7.10;;;1.67;;
17201;SDS011;8717;53.588;10.176;2022-12-07T12:14:16;4.97;;;1.57;;
17201;SDS011;8717;53.588;10.176;2022-12-07T12:17:04;6.37;;;1.30;;
17201;SDS011;8717;53.588;10.176;2022-12-07T12:19:55;4.80;;;1.47;;
17201;SDS011;8717;53.588;10.176;2022-12-07T12:22:28;7.47;;;1.63;;
17201;SDS011;8717;53.588;10.176;2022-12-07T12:25:02;6.43;;;1.60;;
17201;SDS011;8717;53.588;10.176;2022-12-07T12:27:33;7.63;;;1.20;;
17201;SDS011;8717;53.588;10.176;2022-12-07T12:30:03;10.73;;;2.10;;
17201;SDS011;8717;53.588;10.176;2022-12-07T12:32:34;6.03;;;1.33;;
17201;SDS011;8717;53.588;10.176;2022-12-07T12:37:50;4.50;;;0.93;;
17201;SDS011;8717;53.588;10.176;2022-12-07T12:40:40;6.60;;;1.80;;
17201;SDS011;8717;53.588;10.176;2022-12-07T12:49:30;7.83;;;1.43;;
17201;SDS011;8717;53.588;10.176;2022-12-07T12:55:16;5.63;;;1.50;;
17201;SDS011;8717;53.588;10.176;2022-12-07T12:57:46;4.57;;;1.33;;
17201;SDS011;8717;53.588;10.176;2022-12-07T13:00:34;6.63;;;1.60;;
17201;SDS011;8717;53.588;10.176;2022-12-07T13:03:00;7.77;;;1.50;;
17201;SDS011;8717;53.588;10.176;2022-12-07T13:05:28;4.87;;;1.10;;
17201;SDS011;8717;53.588;10.176;2022-12-07T13:07:57;7.53;;;1.60;;
17201;SDS011;8717;53.588;10.176;2022-12-07T13:13:31;3.60;;;1.00;;
17201;SDS011;8717;53.588;10.176;2022-12-07T13:25:07;1.97;;;1.07;;
17201;SDS011;8717;53.588;10.176;2022-12-07T13:27:41;4.87;;;1.40;;
17201;SDS011;8717;53.588;10.176;2022-12-07T13:30:13;7.07;;;1.30;;
17201;SDS011;8717;53.588;10.176;2022-12-07T13:32:41;11.20;;;2.30;;
17201;SDS011;8717;53.588;10.176;2022-12-07T13:35:28;6.57;;;1.47;;
17201;SDS011;8717;53.588;10.176;2022-12-07T13:37:59;3.43;;;1.33;;
17201;SDS011;8717;53.588;10.176;2022-12-07T13:40:32;7.23;;;1.27;;
17201;SDS011;8717;53.588;10.176;2022-12-07T13:43:01;3.03;;;1.10;;
17201;SDS011;8717;53.588;10.176;2022-12-07T13:45:31;4.57;;;1.00;;
17201;SDS011;8717;53.588;10.176;2022-12-07T13:48:19;5.10;;;1.20;;
17201;SDS011;8717;53.588;10.176;2022-12-07T13:50:54;5.33;;;1.30;;
17201;SDS011;8717;53.588;10.176;2022-12-07T13:53:22;6.10;;;1.30;;
17201;SDS011;8717;53.588;10.176;2022-12-07T13:55:49;6.97;;;1.20;;
17201;SDS011;8717;53.588;10.176;2022-12-07T13:58:19;6.50;;;1.40;;
17201;SDS011;8717;53.588;10.176;2022-12-07T14:00:49;3.93;;;1.20;;
17201;SDS011;8717;53.588;10.176;2022-12-07T14:03:25;5.63;;;1.40;;
17201;SDS011;8717;53.588;10.176;2022-12-07T14:06:05;3.77;;;1.57;;
17201;SDS011;8717;53.588;10.176;2022-12-07T14:08:42;5.63;;;1.33;;
17201;SDS011;8717;53.588;10.176;2022-12-07T14:11:10;6.57;;;2.10;;
17201;SDS011;8717;53.588;10.176;2022-12-07T14:13:47;4.37;;;1.10;;
17201;SDS011;8717;53.588;10.176;2022-12-07T14:16:26;9.47;;;4.50;;
17201;SDS011;8717;53.588;10.176;2022-12-07T14:18:55;7.13;;;4.77;;
17201;SDS011;8717;53.588;10.176;2022-12-07T14:21:24;4.70;;;1.30;;
17201;SDS011;8717;53.588;10.176;2022-12-07T14:24:10;4.47;;;1.10;;
17201;SDS011;8717;53.588;10.176;2022-12-07T14:26:40;4.90;;;0.97;;
17201;SDS011;8717;53.588;10.176;2022-12-07T14:29:21;5.23;;;1.20;;
17201;SDS011;8717;53.588;10.176;2022-12-07T14:31:56;2.13;;;1.00;;
17201;SDS011;8717;53.588;10.176;2022-12-07T14:34:24;5.10;;;1.13;;
17201;SDS011;8717;53.588;10.176;2022-12-07T14:36:54;3.93;;;1.27;;
17201;SDS011;8717;53.588;10.176;2022-12-07T14:39:20;5.13;;;1.70;;
17201;SDS011;8717;53.588;10.176;2022-12-07T14:41:47;3.17;;;1.20;;
17201;SDS011;8717;53.588;10.176;2022-12-07T14:44:17;3.17;;;1.27;;
17201;SDS011;8717;53.588;10.176;2022-12-07T14:46:52;4.87;;;1.13;;
17201;SDS011;8717;53.588;10.176;2022-12-07T14:49:19;2.50;;;1.10;;
17201;SDS011;8717;53.588;10.176;2022-12-07T14:51:46;5.87;;;1.03;;
17201;SDS011;8717;53.588;10.176;2022-12-07T14:54:15;4.07;;;1.00;;
17201;SDS011;8717;53.588;10.176;2022-12-07T14:56:44;6.10;;;1.40;;
17201;SDS011;8717;53.588;10.176;2022-12-07T14:59:14;4.13;;;1.07;;
17201;SDS011;8717;53.588;10.176;2022-12-07T15:01:41;3.80;;;0.87;;
17201;SDS011;8717;53.588;10.176;2022-12-07T15:04:10;4.00;;;1.40;;
17201;SDS011;8717;53.588;10.176;2022-12-07T15:06:37;2.63;;;1.23;;
17201;SDS011;8717;53.588;10.176;2022-12-07T15:09:04;5.47;;;1.37;;
17201;SDS011;8717;53.588;10.176;2022-12-07T15:11:31;7.43;;;1.97;;
17201;SDS011;8717;53.588;10.176;2022-12-07T15:13:58;6.57;;;2.60;;
17201;SDS011;8717;53.588;10.176;2022-12-07T15:16:34;6.80;;;2.13;;
17201;SDS011;8717;53.588;10.176;2022-12-07T15:19:01;6.60;;;1.50;;
17201;SDS011;8717;53.588;10.176;2022-12-07T15:21:29;4.17;;;1.50;;
17201;SDS011;8717;53.588;10.176;2022-12-07T15:23:55;2.40;;;1.13;;
17201;SDS011;8717;53.588;10.176;2022-12-07T15:26:22;7.57;;;1.77;;
17201;SDS011;8717;53.588;10.176;2022-12-07T15:28:49;4.23;;;1.47;;
17201;SDS011;8717;53.588;10.176;2022-12-07T15:31:16;4.97;;;1.30;;
17201;SDS011;8717;53.588;10.176;2022-12-07T15:33:43;7.13;;;1.57;;
17201;SDS011;8717;53.588;10.176;2022-12-07T15:36:15;8.03;;;1.80;;
17201;SDS011;8717;53.588;10.176;2022-12-07T15:38:47;6.00;;;1.50;;
17201;SDS011;8717;53.588;10.176;2022-12-07T15:41:14;5.30;;;1.37;;